sensor_id;sensor_type;location;lat;lon;timestamp;temperature;humidity
22950;DHT22;11641;51.018;4.474;2023-02-11T00:01:38;7.00;99.90
22950;DHT22;11641;51.018;4.474;2023-02-11T00:04:05;6.90;99.90
22950;DHT22;11641;51.018;4.474;2023-02-11T00:06:32;6.90;99.90
22950;DHT22;11641;51.018;4.474;2023-02-11T00:09:01;6.80;99.90
22950;DHT22;11641;51.018;4.474;2023-02-11T00:11:27;6.80;99.90
22950;DHT22;11641;51.018;4.474;2023-02-11T00:14:02;6.70;99.90
22950;DHT22;11641;51.018;4.474;2023-02-11T00:16:28;6.60;99.90
22950;DHT22;11641;51.018;4.474;2023-02-11T00:18:57;6.60;99.90
22950;DHT22;11641;51.018;4.474;2023-02-11T00:21:24;6.60;99.90
22950;DHT22;11641;51.018;4.474;2023-02-11T00:23:51;6.60;99.90
22950;DHT22;11641;51.018;4.474;2023-02-11T00:26:25;6.60;99.90
22950;DHT22;11641;51.018;4.474;2023-02-11T00:28:51;6.60;99.90
22950;DHT22;11641;51.018;4.474;2023-02-11T00:31:19;6.60;99.90
22950;DHT22;11641;51.018;4.474;2023-02-11T00:33:48;6.50;99.90
22950;DHT22;11641;51.018;4.474;2023-02-11T00:36:20;6.50;99.90
22950;DHT22;11641;51.018;4.474;2023-02-11T00:38:47;6.50;99.90
22950;DHT22;11641;51.018;4.474;2023-02-11T00:41:16;6.40;99.90
22950;DHT22;11641;51.018;4.474;2023-02-11T00:43:44;6.50;99.90
22950;DHT22;11641;51.018;4.474;2023-02-11T00:46:12;6.50;99.90
22950;DHT22;11641;51.018;4.474;2023-02-11T00:48:40;6.40;99.90
22950;DHT22;11641;51.018;4.474;2023-02-11T00:51:06;6.50;99.90
22950;DHT22;11641;51.018;4.474;2023-02-11T00:53:32;6.50;99.90
22950;DHT22;11641;51.018;4.474;2023-02-11T00:55:58;6.50;99.90
22950;DHT22;11641;51.018;4.474;2023-02-11T00:58:24;6.50;99.90
22950;DHT22;11641;51.018;4.474;2023-02-11T01:00:49;6.50;99.90
22950;DHT22;11641;51.018;4.474;2023-02-11T01:03:15;6.60;99.90
22950;DHT22;11641;51.018;4.474;2023-02-11T01:05:41;6.60;99.90
22950;DHT22;11641;51.018;4.474;2023-02-11T01:08:06;6.60;99.90
22950;DHT22;11641;51.018;4.474;2023-02-11T01:10:35;6.50;99.90
22950;DHT22;11641;51.018;4.474;2023-02-11T01:13:00;6.60;99.90
22950;DHT22;11641;51.018;4.474;2023-02-11T01:15:27;6.70;99.90
22950;DHT22;11641;51.018;4.474;2023-02-11T01:17:52;6.60;99.90
22950;DHT22;11641;51.018;4.474;2023-02-11T01:20:23;6.60;99.90
22950;DHT22;11641;51.018;4.474;2023-02-11T01:22:49;6.60;99.90
22950;DHT22;11641;51.018;4.474;2023-02-11T01:25:15;6.50;99.90
22950;DHT22;11641;51.018;4.474;2023-02-11T01:27:40;6.50;99.90
22950;DHT22;11641;51.018;4.474;2023-02-11T01:30:08;6.60;99.90
22950;DHT22;11641;51.018;4.474;2023-02-11T01:32:36;6.60;99.90
22950;DHT22;11641;51.018;4.474;2023-02-11T01:35:02;6.70;99.90
22950;DHT22;11641;51.018;4.474;2023-02-11T01:37:28;6.80;99.90
22950;DHT22;11641;51.018;4.474;2023-02-11T01:39:54;6.90;99.90
22950;DHT22;11641;51.018;4.474;2023-02-11T01:42:21;7.00;99.90
22950;DHT22;11641;51.018;4.474;2023-02-11T01:44:50;7.10;99.90
22950;DHT22;11641;51.018;4.474;2023-02-11T01:47:17;7.20;99.90
22950;DHT22;11641;51.018;4.474;2023-02-11T01:49:46;7.20;99.90
22950;DHT22;11641;51.018;4.474;2023-02-11T01:52:20;7.20;99.90
22950;DHT22;11641;51.018;4.474;2023-02-11T01:54:57;7.40;99.90
22950;DHT22;11641;51.018;4.474;2023-02-11T01:57:45;7.50;99.90
22950;DHT22;11641;51.018;4.474;2023-02-11T02:00:16;7.60;99.90
22950;DHT22;11641;51.018;4.474;2023-02-11T02:05:47;7.60;99.90
22950;DHT22;11641;51.018;4.474;2023-02-11T02:08:29;7.60;99.90
22950;DHT22;11641;51.018;4.474;2023-02-11T02:10:57;7.50;99.90
22950;DHT22;11641;51.018;4.474;2023-02-11T02:13:26;7.50;99.90
22950;DHT22;11641;51.018;4.474;2023-02-11T02:15:58;7.40;99.90
22950;DHT22;11641;51.018;4.474;2023-02-11T02:33:12;7.50;99.90
22950;DHT22;11641;51.018;4.474;2023-02-11T02:38:43;7.70;99.90
22950;DHT22;11641;51.018;4.474;2023-02-11T02:41:13;7.70;99.90
22950;DHT22;11641;51.018;4.474;2023-02-11T02:43:50;7.70;99.90
22950;DHT22;11641;51.018;4.474;2023-02-11T02:46:21;7.70;99.90
22950;DHT22;11641;51.018;4.474;2023-02-11T02:48:48;7.60;99.90
22950;DHT22;11641;51.018;4.474;2023-02-11T02:54:03;7.60;99.90
22950;DHT22;11641;51.018;4.474;2023-02-11T02:57:07;7.60;99.90
22950;DHT22;11641;51.018;4.474;2023-02-11T03:05:03;7.70;99.90
22950;DHT22;11641;51.018;4.474;2023-02-11T03:07:44;7.80;99.90
22950;DHT22;11641;51.018;4.474;2023-02-11T03:10:17;7.80;99.90
22950;DHT22;11641;51.018;4.474;2023-02-11T03:12:44;7.90;99.90
22950;DHT22;11641;51.018;4.474;2023-02-11T03:15:11;7.80;99.90
22950;DHT22;11641;51.018;4.474;2023-02-11T03:17:40;7.80;99.90
22950;DHT22;11641;51.018;4.474;2023-02-11T03:20:10;7.90;99.90
22950;DHT22;11641;51.018;4.474;2023-02-11T03:22:42;7.90;99.90
22950;DHT22;11641;51.018;4.474;2023-02-11T03:25:10;8.00;99.90
22950;DHT22;11641;51.018;4.474;2023-02-11T03:27:54;8.00;99.90
22950;DHT22;11641;51.018;4.474;2023-02-11T03:30:25;8.00;99.90
22950;DHT22;11641;51.018;4.474;2023-02-11T03:33:02;7.90;99.90
22950;DHT22;11641;51.018;4.474;2023-02-11T03:35:44;7.90;99.90
22950;DHT22;11641;51.018;4.474;2023-02-11T03:38:17;8.00;99.90
22950;DHT22;11641;51.018;4.474;2023-02-11T03:40:47;8.00;99.90
22950;DHT22;11641;51.018;4.474;2023-02-11T03:43:39;7.80;99.90
22950;DHT22;11641;51.018;4.474;2023-02-11T03:46:06;7.80;99.90
22950;DHT22;11641;51.018;4.474;2023-02-11T03:48:36;7.80;99.90
22950;DHT22;11641;51.018;4.474;2023-02-11T03:51:07;7.80;99.90
22950;DHT22;11641;51.018;4.474;2023-02-11T03:53:33;7.90;99.90
22950;DHT22;11641;51.018;4.474;2023-02-11T03:56:04;7.80;99.90
22950;DHT22;11641;51.018;4.474;2023-02-11T03:58:30;7.70;99.90
22950;DHT22;11641;51.018;4.474;2023-02-11T04:00:56;7.80;99.90
22950;DHT22;11641;51.018;4.474;2023-02-11T04:03:22;7.60;99.90
22950;DHT22;11641;51.018;4.474;2023-02-11T04:05:48;7.70;99.90
22950;DHT22;11641;51.018;4.474;2023-02-11T04:08:16;7.60;99.90
22950;DHT22;11641;51.018;4.474;2023-02-11T04:10:42;7.70;99.90
22950;DHT22;11641;51.018;4.474;2023-02-11T04:13:08;7.60;99.90
22950;DHT22;11641;51.018;4.474;2023-02-11T04:15:33;7.60;99.90
22950;DHT22;11641;51.018;4.474;2023-02-11T04:17:59;7.70;99.90
22950;DHT22;11641;51.018;4.474;2023-02-11T04:20:25;7.70;99.90
22950;DHT22;11641;51.018;4.474;2023-02-11T04:22:51;7.80;99.90
22950;DHT22;11641;51.018;4.474;2023-02-11T04:25:17;7.70;99.90
22950;DHT22;11641;51.018;4.474;2023-02-11T04:27:44;7.80;99.90
22950;DHT22;11641;51.018;4.474;2023-02-11T04:30:09;7.70;99.90
22950;DHT22;11641;51.018;4.474;2023-02-11T04:32:35;7.80;99.90
22950;DHT22;11641;51.018;4.474;2023-02-11T04:35:01;7.80;99.90
22950;DHT22;11641;51.018;4.474;2023-02-11T04:37:27;7.80;99.90
22950;DHT22;11641;51.018;4.474;2023-02-11T04:39:53;7.90;99.90
22950;DHT22;11641;51.018;4.474;2023-02-11T04:42:19;7.90;99.90
22950;DHT22;11641;51.018;4.474;2023-02-11T04:44:44;8.00;99.90
22950;DHT22;11641;51.018;4.474;2023-02-11T04:47:10;8.00;99.90
22950;DHT22;11641;51.018;4.474;2023-02-11T04:49:38;8.00;99.90
22950;DHT22;11641;51.018;4.474;2023-02-11T04:52:03;7.90;99.90
22950;DHT22;11641;51.018;4.474;2023-02-11T04:54:29;8.00;99.90
22950;DHT22;11641;51.018;4.474;2023-02-11T04:56:55;7.90;99.90
22950;DHT22;11641;51.018;4.474;2023-02-11T04:59:20;7.80;99.90
22950;DHT22;11641;51.018;4.474;2023-02-11T05:01:46;7.90;99.90
22950;DHT22;11641;51.018;4.474;2023-02-11T05:04:12;8.00;99.90
22950;DHT22;11641;51.018;4.474;2023-02-11T05:06:38;8.10;99.90
22950;DHT22;11641;51.018;4.474;2023-02-11T05:09:04;8.10;99.90
22950;DHT22;11641;51.018;4.474;2023-02-11T05:11:30;8.00;99.90
22950;DHT22;11641;51.018;4.474;2023-02-11T05:13:55;8.00;99.90
22950;DHT22;11641;51.018;4.474;2023-02-11T05:16:21;8.00;99.90
22950;DHT22;11641;51.018;4.474;2023-02-11T05:18:47;7.90;99.90
22950;DHT22;11641;51.018;4.474;2023-02-11T05:21:17;8.00;99.90
22950;DHT22;11641;51.018;4.474;2023-02-11T05:23:43;8.00;99.90
22950;DHT22;11641;51.018;4.474;2023-02-11T05:26:10;7.90;99.90
22950;DHT22;11641;51.018;4.474;2023-02-11T05:28:36;7.90;99.90
22950;DHT22;11641;51.018;4.474;2023-02-11T05:31:02;7.90;99.90
22950;DHT22;11641;51.018;4.474;2023-02-11T05:33:29;8.00;99.90
22950;DHT22;11641;51.018;4.474;2023-02-11T05:36:07;7.90;99.90
22950;DHT22;11641;51.018;4.474;2023-02-11T05:38:33;8.10;99.90
22950;DHT22;11641;51.018;4.474;2023-02-11T05:41:00;8.00;99.90
22950;DHT22;11641;51.018;4.474;2023-02-11T05:43:26;7.90;99.90
22950;DHT22;11641;51.018;4.474;2023-02-11T05:45:52;7.80;99.90
22950;DHT22;11641;51.018;4.474;2023-02-11T05:48:18;7.70;99.90
22950;DHT22;11641;51.018;4.474;2023-02-11T05:50:44;7.70;99.90
22950;DHT22;11641;51.018;4.474;2023-02-11T05:53:10;7.80;99.90
22950;DHT22;11641;51.018;4.474;2023-02-11T05:55:35;7.90;99.90
22950;DHT22;11641;51.018;4.474;2023-02-11T05:58:01;7.90;99.90
22950;DHT22;11641;51.018;4.474;2023-02-11T06:00:27;8.00;99.90
22950;DHT22;11641;51.018;4.474;2023-02-11T06:02:53;7.90;99.90
22950;DHT22;11641;51.018;4.474;2023-02-11T06:05:18;7.90;99.90
22950;DHT22;11641;51.018;4.474;2023-02-11T06:07:47;8.00;99.90
22950;DHT22;11641;51.018;4.474;2023-02-11T06:10:13;8.00;99.90
22950;DHT22;11641;51.018;4.474;2023-02-11T06:12:38;8.00;99.90
22950;DHT22;11641;51.018;4.474;2023-02-11T06:15:05;7.90;99.90
22950;DHT22;11641;51.018;4.474;2023-02-11T06:17:31;7.90;99.90
22950;DHT22;11641;51.018;4.474;2023-02-11T06:19:59;7.90;99.90
22950;DHT22;11641;51.018;4.474;2023-02-11T06:22:27;8.00;99.90
22950;DHT22;11641;51.018;4.474;2023-02-11T06:24:53;8.20;99.90
22950;DHT22;11641;51.018;4.474;2023-02-11T06:27:19;8.10;99.90
22950;DHT22;11641;51.018;4.474;2023-02-11T06:29:45;8.00;99.90
22950;DHT22;11641;51.018;4.474;2023-02-11T06:32:11;8.10;99.90
22950;DHT22;11641;51.018;4.474;2023-02-11T06:34:37;8.10;99.90
22950;DHT22;11641;51.018;4.474;2023-02-11T06:37:03;8.10;99.90
22950;DHT22;11641;51.018;4.474;2023-02-11T06:39:29;8.20;99.90
22950;DHT22;11641;51.018;4.474;2023-02-11T06:41:55;8.10;99.90
22950;DHT22;11641;51.018;4.474;2023-02-11T06:44:20;8.20;99.90
22950;DHT22;11641;51.018;4.474;2023-02-11T06:46:47;8.20;99.90
22950;DHT22;11641;51.018;4.474;2023-02-11T06:49:12;8.20;99.90
22950;DHT22;11641;51.018;4.474;2023-02-11T06:51:38;8.30;99.90
22950;DHT22;11641;51.018;4.474;2023-02-11T06:54:05;8.20;99.90
22950;DHT22;11641;51.018;4.474;2023-02-11T06:56:31;8.30;99.90
22950;DHT22;11641;51.018;4.474;2023-02-11T06:58:58;8.30;99.90
22950;DHT22;11641;51.018;4.474;2023-02-11T07:01:27;8.40;99.90
22950;DHT22;11641;51.018;4.474;2023-02-11T07:03:53;8.30;99.90
22950;DHT22;11641;51.018;4.474;2023-02-11T07:06:23;8.30;99.90
22950;DHT22;11641;51.018;4.474;2023-02-11T07:08:50;8.10;99.90
22950;DHT22;11641;51.018;4.474;2023-02-11T07:11:27;8.30;99.90
22950;DHT22;11641;51.018;4.474;2023-02-11T07:13:55;8.30;99.90
22950;DHT22;11641;51.018;4.474;2023-02-11T07:16:22;8.40;99.90
22950;DHT22;11641;51.018;4.474;2023-02-11T07:18:48;8.30;99.90
22950;DHT22;11641;51.018;4.474;2023-02-11T07:21:16;8.30;99.90
22950;DHT22;11641;51.018;4.474;2023-02-11T07:23:43;8.20;99.90
22950;DHT22;11641;51.018;4.474;2023-02-11T07:26:14;8.40;99.90
22950;DHT22;11641;51.018;4.474;2023-02-11T07:28:40;8.30;99.90
22950;DHT22;11641;51.018;4.474;2023-02-11T07:31:13;8.30;99.90
22950;DHT22;11641;51.018;4.474;2023-02-11T07:33:39;8.30;99.90
22950;DHT22;11641;51.018;4.474;2023-02-11T07:36:07;8.40;99.90
22950;DHT22;11641;51.018;4.474;2023-02-11T07:38:34;8.50;99.90
22950;DHT22;11641;51.018;4.474;2023-02-11T07:41:08;8.40;99.90
22950;DHT22;11641;51.018;4.474;2023-02-11T07:43:36;8.40;99.90
22950;DHT22;11641;51.018;4.474;2023-02-11T07:46:06;8.40;99.90
22950;DHT22;11641;51.018;4.474;2023-02-11T07:48:32;8.50;99.90
22950;DHT22;11641;51.018;4.474;2023-02-11T07:51:13;8.50;99.90
22950;DHT22;11641;51.018;4.474;2023-02-11T07:53:41;8.50;99.90
22950;DHT22;11641;51.018;4.474;2023-02-11T07:56:08;8.50;99.90
22950;DHT22;11641;51.018;4.474;2023-02-11T07:58:35;8.50;99.90
22950;DHT22;11641;51.018;4.474;2023-02-11T08:01:06;8.60;99.90
22950;DHT22;11641;51.018;4.474;2023-02-11T08:03:33;8.60;99.90
22950;DHT22;11641;51.018;4.474;2023-02-11T08:06:03;8.60;99.90
22950;DHT22;11641;51.018;4.474;2023-02-11T08:08:29;8.60;99.90
22950;DHT22;11641;51.018;4.474;2023-02-11T08:10:58;8.80;99.90
22950;DHT22;11641;51.018;4.474;2023-02-11T08:13:29;8.90;99.90
22950;DHT22;11641;51.018;4.474;2023-02-11T08:15:56;9.10;99.90
22950;DHT22;11641;51.018;4.474;2023-02-11T08:18:22;9.10;99.90
22950;DHT22;11641;51.018;4.474;2023-02-11T08:20:48;9.10;99.90
22950;DHT22;11641;51.018;4.474;2023-02-11T08:23:14;9.10;99.90
22950;DHT22;11641;51.018;4.474;2023-02-11T08:25:40;9.10;99.90
22950;DHT22;11641;51.018;4.474;2023-02-11T08:28:06;9.20;99.90
22950;DHT22;11641;51.018;4.474;2023-02-11T08:30:33;9.20;99.90
22950;DHT22;11641;51.018;4.474;2023-02-11T08:32:59;9.10;99.90
22950;DHT22;11641;51.018;4.474;2023-02-11T08:35:25;9.20;99.90
22950;DHT22;11641;51.018;4.474;2023-02-11T08:37:51;9.30;99.90
22950;DHT22;11641;51.018;4.474;2023-02-11T08:40:17;9.20;99.90
22950;DHT22;11641;51.018;4.474;2023-02-11T08:42:43;9.30;99.90
22950;DHT22;11641;51.018;4.474;2023-02-11T08:45:09;9.20;99.90
22950;DHT22;11641;51.018;4.474;2023-02-11T08:47:35;9.10;99.90
22950;DHT22;11641;51.018;4.474;2023-02-11T08:50:02;9.00;99.90
22950;DHT22;11641;51.018;4.474;2023-02-11T08:52:28;9.10;99.90
22950;DHT22;11641;51.018;4.474;2023-02-11T08:54:53;9.10;99.90
22950;DHT22;11641;51.018;4.474;2023-02-11T08:57:19;9.00;99.90
22950;DHT22;11641;51.018;4.474;2023-02-11T08:59:45;9.00;99.90
22950;DHT22;11641;51.018;4.474;2023-02-11T09:02:12;9.00;99.90
22950;DHT22;11641;51.018;4.474;2023-02-11T09:04:38;8.90;99.90
22950;DHT22;11641;51.018;4.474;2023-02-11T09:07:04;8.90;99.90
22950;DHT22;11641;51.018;4.474;2023-02-11T09:09:30;9.00;99.90
22950;DHT22;11641;51.018;4.474;2023-02-11T09:11:56;9.10;99.90
22950;DHT22;11641;51.018;4.474;2023-02-11T09:14:23;9.30;99.90
22950;DHT22;11641;51.018;4.474;2023-02-11T09:16:50;9.40;99.90
22950;DHT22;11641;51.018;4.474;2023-02-11T09:19:16;9.30;99.90
22950;DHT22;11641;51.018;4.474;2023-02-11T09:21:42;9.40;99.90
22950;DHT22;11641;51.018;4.474;2023-02-11T09:24:08;9.30;99.90
22950;DHT22;11641;51.018;4.474;2023-02-11T09:26:35;9.20;99.90
22950;DHT22;11641;51.018;4.474;2023-02-11T09:29:02;9.30;99.90
22950;DHT22;11641;51.018;4.474;2023-02-11T09:31:30;9.40;99.90
22950;DHT22;11641;51.018;4.474;2023-02-11T09:33:59;9.30;99.90
22950;DHT22;11641;51.018;4.474;2023-02-11T09:36:31;9.50;99.90
22950;DHT22;11641;51.018;4.474;2023-02-11T09:39:00;9.60;99.90
22950;DHT22;11641;51.018;4.474;2023-02-11T09:44:03;9.50;99.90
22950;DHT22;11641;51.018;4.474;2023-02-11T09:46:33;9.50;99.90
22950;DHT22;11641;51.018;4.474;2023-02-11T09:49:01;9.50;99.90
22950;DHT22;11641;51.018;4.474;2023-02-11T09:56:57;9.70;99.90
22950;DHT22;11641;51.018;4.474;2023-02-11T09:59:23;9.60;99.90
22950;DHT22;11641;51.018;4.474;2023-02-11T10:01:54;9.60;99.90
22950;DHT22;11641;51.018;4.474;2023-02-11T10:06:58;9.90;99.90
22950;DHT22;11641;51.018;4.474;2023-02-11T10:09:51;9.80;99.90
22950;DHT22;11641;51.018;4.474;2023-02-11T10:15:41;10.30;99.90
22950;DHT22;11641;51.018;4.474;2023-02-11T10:20:59;10.60;99.90
22950;DHT22;11641;51.018;4.474;2023-02-11T10:23:30;10.60;99.90
22950;DHT22;11641;51.018;4.474;2023-02-11T10:25:58;10.40;99.90
22950;DHT22;11641;51.018;4.474;2023-02-11T10:28:30;10.40;99.90
22950;DHT22;11641;51.018;4.474;2023-02-11T10:33:35;10.50;99.90
22950;DHT22;11641;51.018;4.474;2023-02-11T10:36:04;10.60;99.90
22950;DHT22;11641;51.018;4.474;2023-02-11T10:38:32;10.50;99.90
22950;DHT22;11641;51.018;4.474;2023-02-11T10:41:00;10.50;99.90
22950;DHT22;11641;51.018;4.474;2023-02-11T10:43:29;10.50;99.90
22950;DHT22;11641;51.018;4.474;2023-02-11T10:45:57;10.50;99.90
22950;DHT22;11641;51.018;4.474;2023-02-11T10:48:45;10.50;99.90
22950;DHT22;11641;51.018;4.474;2023-02-11T10:51:25;10.40;99.90
22950;DHT22;11641;51.018;4.474;2023-02-11T10:56:31;10.60;99.90
22950;DHT22;11641;51.018;4.474;2023-02-11T10:59:03;10.50;99.90
22950;DHT22;11641;51.018;4.474;2023-02-11T11:02:17;10.20;99.90
22950;DHT22;11641;51.018;4.474;2023-02-11T11:04:46;10.10;99.90
22950;DHT22;11641;51.018;4.474;2023-02-11T11:07:26;10.20;99.90
22950;DHT22;11641;51.018;4.474;2023-02-11T11:10:24;10.30;99.90
22950;DHT22;11641;51.018;4.474;2023-02-11T11:12:49;10.50;99.90
22950;DHT22;11641;51.018;4.474;2023-02-11T11:15:23;10.20;99.90
22950;DHT22;11641;51.018;4.474;2023-02-11T11:21:02;10.20;99.90
22950;DHT22;11641;51.018;4.474;2023-02-11T11:23:30;10.20;99.90
22950;DHT22;11641;51.018;4.474;2023-02-11T11:26:13;10.50;99.90
22950;DHT22;11641;51.018;4.474;2023-02-11T11:28:57;10.70;99.90
22950;DHT22;11641;51.018;4.474;2023-02-11T11:31:44;10.80;99.90
22950;DHT22;11641;51.018;4.474;2023-02-11T11:34:32;10.70;99.90
22950;DHT22;11641;51.018;4.474;2023-02-11T11:37:00;10.80;99.90
22950;DHT22;11641;51.018;4.474;2023-02-11T11:39:29;10.80;99.90
22950;DHT22;11641;51.018;4.474;2023-02-11T11:42:03;10.80;99.90
22950;DHT22;11641;51.018;4.474;2023-02-11T11:44:34;10.80;99.90
22950;DHT22;11641;51.018;4.474;2023-02-11T11:49:49;10.70;99.90
22950;DHT22;11641;51.018;4.474;2023-02-11T11:55:17;10.60;99.90
22950;DHT22;11641;51.018;4.474;2023-02-11T11:57:44;10.50;99.90
22950;DHT22;11641;51.018;4.474;2023-02-11T12:14:23;11.00;99.90
22950;DHT22;11641;51.018;4.474;2023-02-11T12:17:33;10.90;99.90
22950;DHT22;11641;51.018;4.474;2023-02-11T12:23:18;10.80;99.90
22950;DHT22;11641;51.018;4.474;2023-02-11T12:26:00;10.90;99.90
22950;DHT22;11641;51.018;4.474;2023-02-11T12:33:59;10.90;99.90
22950;DHT22;11641;51.018;4.474;2023-02-11T12:56:10;11.00;99.90
22950;DHT22;11641;51.018;4.474;2023-02-11T12:58:38;11.00;99.90
22950;DHT22;11641;51.018;4.474;2023-02-11T13:01:22;11.20;99.90
22950;DHT22;11641;51.018;4.474;2023-02-11T13:06:39;11.30;99.90
22950;DHT22;11641;51.018;4.474;2023-02-11T13:09:13;11.20;99.90
22950;DHT22;11641;51.018;4.474;2023-02-11T13:11:46;11.10;99.90
22950;DHT22;11641;51.018;4.474;2023-02-11T13:14:35;10.90;99.90
22950;DHT22;11641;51.018;4.474;2023-02-11T13:17:14;10.90;99.90
22950;DHT22;11641;51.018;4.474;2023-02-11T13:19:52;11.00;99.90
22950;DHT22;11641;51.018;4.474;2023-02-11T13:22:38;11.10;99.90
22950;DHT22;11641;51.018;4.474;2023-02-11T13:25:21;11.00;99.90
22950;DHT22;11641;51.018;4.474;2023-02-11T13:28:29;11.10;99.90
22950;DHT22;11641;51.018;4.474;2023-02-11T13:30:59;11.00;99.90
22950;DHT22;11641;51.018;4.474;2023-02-11T13:33:37;11.00;99.90
22950;DHT22;11641;51.018;4.474;2023-02-11T13:38:30;11.00;99.90
22950;DHT22;11641;51.018;4.474;2023-02-11T13:43:33;11.10;99.90
22950;DHT22;11641;51.018;4.474;2023-02-11T13:46:03;11.10;99.90
22950;DHT22;11641;51.018;4.474;2023-02-11T13:48:35;11.20;99.90
22950;DHT22;11641;51.018;4.474;2023-02-11T13:51:04;11.30;99.90
22950;DHT22;11641;51.018;4.474;2023-02-11T13:53:47;11.30;99.90
22950;DHT22;11641;51.018;4.474;2023-02-11T13:56:34;11.30;99.90
22950;DHT22;11641;51.018;4.474;2023-02-11T13:59:42;11.30;99.90
22950;DHT22;11641;51.018;4.474;2023-02-11T14:05:21;10.90;99.90
22950;DHT22;11641;51.018;4.474;2023-02-11T14:10:58;11.10;99.90
22950;DHT22;11641;51.018;4.474;2023-02-11T14:16:05;11.10;99.90
22950;DHT22;11641;51.018;4.474;2023-02-11T14:26:49;10.90;99.90
22950;DHT22;11641;51.018;4.474;2023-02-11T14:32:20;10.60;99.90
22950;DHT22;11641;51.018;4.474;2023-02-11T14:34:58;10.80;99.90
22950;DHT22;11641;51.018;4.474;2023-02-11T14:42:40;10.80;99.90
22950;DHT22;11641;51.018;4.474;2023-02-11T14:45:13;11.00;99.90
22950;DHT22;11641;51.018;4.474;2023-02-11T14:47:45;11.00;99.90
22950;DHT22;11641;51.018;4.474;2023-02-11T14:50:37;11.00;99.90
22950;DHT22;11641;51.018;4.474;2023-02-11T14:53:06;11.00;99.90
22950;DHT22;11641;51.018;4.474;2023-02-11T14:55:40;11.00;99.90
22950;DHT22;11641;51.018;4.474;2023-02-11T15:03:36;10.80;99.90
22950;DHT22;11641;51.018;4.474;2023-02-11T15:06:32;10.90;99.90
22950;DHT22;11641;51.018;4.474;2023-02-11T15:09:05;10.80;99.90
22950;DHT22;11641;51.018;4.474;2023-02-11T15:11:39;10.80;99.90
22950;DHT22;11641;51.018;4.474;2023-02-11T15:14:13;10.60;99.90
22950;DHT22;11641;51.018;4.474;2023-02-11T15:16:42;10.60;99.90
22950;DHT22;11641;51.018;4.474;2023-02-11T15:19:20;10.50;99.90
22950;DHT22;11641;51.018;4.474;2023-02-11T15:21:48;10.50;99.90
22950;DHT22;11641;51.018;4.474;2023-02-11T15:24:25;10.50;99.90
22950;DHT22;11641;51.018;4.474;2023-02-11T15:27:09;10.50;99.90
22950;DHT22;11641;51.018;4.474;2023-02-11T15:29:45;10.40;99.90
22950;DHT22;11641;51.018;4.474;2023-02-11T15:32:24;10.60;99.90
22950;DHT22;11641;51.018;4.474;2023-02-11T15:34:51;10.70;99.90
22950;DHT22;11641;51.018;4.474;2023-02-11T15:37:26;10.70;99.90
22950;DHT22;11641;51.018;4.474;2023-02-11T15:39:54;10.60;99.90
22950;DHT22;11641;51.018;4.474;2023-02-11T15:42:32;10.60;99.90
22950;DHT22;11641;51.018;4.474;2023-02-11T15:45:21;10.50;99.90
22950;DHT22;11641;51.018;4.474;2023-02-11T15:48:20;10.80;99.90
22950;DHT22;11641;51.018;4.474;2023-02-11T15:50:56;10.50;99.90
22950;DHT22;11641;51.018;4.474;2023-02-11T15:53:28;10.50;99.90
22950;DHT22;11641;51.018;4.474;2023-02-11T15:56:03;10.40;99.90
22950;DHT22;11641;51.018;4.474;2023-02-11T15:58:37;10.40;99.90
22950;DHT22;11641;51.018;4.474;2023-02-11T16:01:04;10.50;99.90
22950;DHT22;11641;51.018;4.474;2023-02-11T16:03:30;10.40;99.90
22950;DHT22;11641;51.018;4.474;2023-02-11T16:06:15;10.40;99.90
22950;DHT22;11641;51.018;4.474;2023-02-11T16:08:41;10.30;99.90
22950;DHT22;11641;51.018;4.474;2023-02-11T16:11:28;10.30;99.90
22950;DHT22;11641;51.018;4.474;2023-02-11T16:13:56;10.50;99.90
22950;DHT22;11641;51.018;4.474;2023-02-11T16:16:31;10.30;99.90
22950;DHT22;11641;51.018;4.474;2023-02-11T16:18:59;10.40;99.90
22950;DHT22;11641;51.018;4.474;2023-02-11T16:21:39;10.40;99.90
22950;DHT22;11641;51.018;4.474;2023-02-11T16:24:13;10.50;99.90
22950;DHT22;11641;51.018;4.474;2023-02-11T16:26:47;10.40;99.90
22950;DHT22;11641;51.018;4.474;2023-02-11T16:29:16;10.50;99.90
22950;DHT22;11641;51.018;4.474;2023-02-11T16:31:44;10.50;99.90
22950;DHT22;11641;51.018;4.474;2023-02-11T16:34:24;10.40;99.90
22950;DHT22;11641;51.018;4.474;2023-02-11T16:36:51;10.40;99.90
22950;DHT22;11641;51.018;4.474;2023-02-11T16:39:18;10.40;99.90
22950;DHT22;11641;51.018;4.474;2023-02-11T16:41:49;10.40;99.90
22950;DHT22;11641;51.018;4.474;2023-02-11T16:44:17;10.40;99.90
22950;DHT22;11641;51.018;4.474;2023-02-11T16:46:43;10.40;99.90
22950;DHT22;11641;51.018;4.474;2023-02-11T16:49:19;10.40;99.90
22950;DHT22;11641;51.018;4.474;2023-02-11T16:51:48;10.40;99.90
22950;DHT22;11641;51.018;4.474;2023-02-11T16:54:17;10.30;99.90
22950;DHT22;11641;51.018;4.474;2023-02-11T16:56:43;10.30;99.90
22950;DHT22;11641;51.018;4.474;2023-02-11T16:59:09;10.40;99.90
22950;DHT22;11641;51.018;4.474;2023-02-11T17:01:37;10.30;99.90
22950;DHT22;11641;51.018;4.474;2023-02-11T17:04:04;10.20;99.90
22950;DHT22;11641;51.018;4.474;2023-02-11T17:06:30;10.20;99.90
22950;DHT22;11641;51.018;4.474;2023-02-11T17:08:57;10.30;99.90
22950;DHT22;11641;51.018;4.474;2023-02-11T17:11:26;10.30;99.90
22950;DHT22;11641;51.018;4.474;2023-02-11T17:13:54;10.30;99.90
22950;DHT22;11641;51.018;4.474;2023-02-11T17:16:21;10.30;99.90
22950;DHT22;11641;51.018;4.474;2023-02-11T17:18:49;10.30;99.90
22950;DHT22;11641;51.018;4.474;2023-02-11T17:21:15;10.20;99.90
22950;DHT22;11641;51.018;4.474;2023-02-11T17:23:41;10.30;99.90
22950;DHT22;11641;51.018;4.474;2023-02-11T17:26:07;10.30;99.90
22950;DHT22;11641;51.018;4.474;2023-02-11T17:28:34;10.30;99.90
22950;DHT22;11641;51.018;4.474;2023-02-11T17:31:00;10.10;99.90
22950;DHT22;11641;51.018;4.474;2023-02-11T17:33:27;10.10;99.90
22950;DHT22;11641;51.018;4.474;2023-02-11T17:35:53;10.20;99.90
22950;DHT22;11641;51.018;4.474;2023-02-11T17:38:18;10.30;99.90
22950;DHT22;11641;51.018;4.474;2023-02-11T17:40:44;10.20;99.90
22950;DHT22;11641;51.018;4.474;2023-02-11T17:43:10;10.20;99.90
22950;DHT22;11641;51.018;4.474;2023-02-11T17:45:40;10.20;99.90
22950;DHT22;11641;51.018;4.474;2023-02-11T17:48:05;10.20;99.90
22950;DHT22;11641;51.018;4.474;2023-02-11T17:50:34;10.10;99.90
22950;DHT22;11641;51.018;4.474;2023-02-11T17:53:01;10.20;99.90
22950;DHT22;11641;51.018;4.474;2023-02-11T17:55:26;10.10;99.90
22950;DHT22;11641;51.018;4.474;2023-02-11T17:57:52;10.20;99.90
22950;DHT22;11641;51.018;4.474;2023-02-11T18:00:18;10.20;99.90
22950;DHT22;11641;51.018;4.474;2023-02-11T18:02:44;10.10;99.90
22950;DHT22;11641;51.018;4.474;2023-02-11T18:05:10;10.10;99.90
22950;DHT22;11641;51.018;4.474;2023-02-11T18:07:40;10.10;99.90
22950;DHT22;11641;51.018;4.474;2023-02-11T18:10:07;10.00;99.90
22950;DHT22;11641;51.018;4.474;2023-02-11T18:12:33;10.10;99.90
22950;DHT22;11641;51.018;4.474;2023-02-11T18:14:59;10.10;99.90
22950;DHT22;11641;51.018;4.474;2023-02-11T18:17:25;10.00;99.90
22950;DHT22;11641;51.018;4.474;2023-02-11T18:19:56;10.10;99.90